Time;durP1;ratioP1;P1;durP2;ratioP2;P2;SDS_P1;SDS_P2;PMS_P1;PMS_P2;Temp;Humidity;BMP_temperature;BMP_pressure;BME280_temperature;BME280_humidity;BME280_pressure;Samples;Min_cycle;Max_cycle;Signal;HPM_P1;HPM_P2
2022/09/24 00:00:01;;;;;;;22.87;17.07;;;13.40;99.90;;;;;;5064582;28;20235;-63
2022/09/24 00:02:30;;;;;;;25.93;17.40;;;13.40;99.90;;;;;;5065736;28;20273;-64
2022/09/24 00:04:58;;;;;;;23.90;16.37;;;13.40;99.90;;;;;;5064821;28;20658;-64
2022/09/24 00:07:26;;;;;;;22.43;16.03;;;13.40;99.90;;;;;;5060226;28;20188;-64
2022/09/24 00:09:55;;;;;;;23.97;15.93;;;13.30;99.90;;;;;;5062606;28;20203;-64
2022/09/24 00:12:23;;;;;;;23.67;16.30;;;13.30;99.90;;;;;;5062575;28;20196;-64
2022/09/24 00:14:52;;;;;;;21.80;14.20;;;13.30;99.90;;;;;;5061783;28;20209;-63
2022/09/24 00:17:22;;;;;;;21.70;14.97;;;13.40;99.90;;;;;;5053926;28;20277;-64
2022/09/24 00:19:50;;;;;;;19.70;14.60;;;13.30;99.90;;;;;;5062953;28;20195;-63
2022/09/24 00:22:18;;;;;;;20.73;14.83;;;13.30;99.90;;;;;;5058568;28;20706;-63
2022/09/24 00:27:33;;;;;;;21.03;14.43;;;13.20;99.90;;;;;;5084344;28;20196;-64
2022/09/24 00:30:01;;;;;;;20.43;14.30;;;13.20;99.90;;;;;;5061165;28;20211;-64
2022/09/24 00:32:31;;;;;;;24.13;15.40;;;13.20;99.90;;;;;;5060303;28;20845;-64
2022/09/24 00:34:59;;;;;;;20.67;15.30;;;13.20;99.90;;;;;;5052628;28;20192;-64
2022/09/24 00:37:28;;;;;;;21.07;14.80;;;13.20;99.90;;;;;;5059296;28;20334;-64
2022/09/24 00:39:56;;;;;;;20.13;14.13;;;13.20;99.90;;;;;;5053312;28;20211;-64
2022/09/24 00:42:25;;;;;;;19.20;14.00;;;13.20;99.90;;;;;;5056086;28;20203;-64
2022/09/24 00:44:55;;;;;;;20.60;13.47;;;13.20;99.90;;;;;;5054625;28;20639;-64
2022/09/24 00:47:37;;;;;;;17.43;12.83;;;13.20;99.90;;;;;;5058930;28;20659;-64
2022/09/24 00:50:13;;;;;;;22.83;13.30;;;13.20;99.90;;;;;;5061868;28;20854;-64
2022/09/24 00:52:45;;;;;;;15.43;12.40;;;13.10;99.90;;;;;;5057912;28;20210;-64
2022/09/24 00:55:15;;;;;;;19.30;13.37;;;13.20;99.90;;;;;;5056734;28;20227;-64
2022/09/24 00:57:47;;;;;;;18.87;12.87;;;13.20;99.90;;;;;;5057131;28;20200;-64
2022/09/24 01:00:16;;;;;;;16.00;12.43;;;13.20;99.90;;;;;;5069352;28;20254;-64
2022/09/24 01:02:48;;;;;;;15.87;12.57;;;13.20;99.90;;;;;;5059821;28;20717;-64
2022/09/24 01:05:18;;;;;;;18.93;12.33;;;13.10;99.90;;;;;;5056694;28;20663;-64
2022/09/24 01:07:47;;;;;;;20.50;13.23;;;13.20;99.90;;;;;;5054917;28;20574;-63
2022/09/24 01:10:46;;;;;;;19.43;12.97;;;13.20;99.90;;;;;;5057783;28;20220;-64
2022/09/24 01:13:16;;;;;;;16.10;12.33;;;13.20;99.90;;;;;;5055342;28;20203;-64
2022/09/24 01:15:50;;;;;;;19.47;13.50;;;13.10;99.90;;;;;;5053916;28;20665;-64
2022/09/24 01:18:28;;;;;;;19.53;13.37;;;13.10;99.90;;;;;;5055904;28;20737;-63
2022/09/24 01:21:24;;;;;;;20.47;13.63;;;13.10;99.90;;;;;;5060024;28;20191;-63
2022/09/24 01:24:28;;;;;;;21.03;13.63;;;13.10;99.90;;;;;;5051989;28;20213;-63
2022/09/24 01:27:10;;;;;;;18.17;12.80;;;13.10;99.90;;;;;;5024833;28;20200;-64
2022/09/24 01:30:02;;;;;;;19.10;13.90;;;13.20;99.90;;;;;;5055626;28;20216;-64
2022/09/24 01:32:37;;;;;;;25.23;14.87;;;13.20;99.90;;;;;;5058958;28;20648;-64
2022/09/24 01:35:14;;;;;;;21.20;14.87;;;13.20;99.90;;;;;;5074076;28;20219;-64
2022/09/24 01:37:47;;;;;;;20.80;14.40;;;13.10;99.90;;;;;;5058110;28;20202;-64
2022/09/24 01:40:18;;;;;;;21.40;14.67;;;13.10;99.90;;;;;;5056452;28;20843;-64
2022/09/24 01:42:48;;;;;;;22.53;14.47;;;13.10;99.90;;;;;;5055614;28;20219;-64
2022/09/24 01:45:18;;;;;;;23.97;14.97;;;13.10;99.90;;;;;;5055973;28;20203;-64
2022/09/24 01:47:47;;;;;;;22.40;14.13;;;13.10;99.90;;;;;;5056148;28;20200;-64
2022/09/24 01:50:19;;;;;;;21.50;14.73;;;13.10;99.90;;;;;;5054996;28;20235;-64
2022/09/24 01:52:53;;;;;;;21.73;14.43;;;13.10;99.90;;;;;;5051281;28;20193;-64
2022/09/24 01:55:25;;;;;;;20.47;14.03;;;13.10;99.90;;;;;;5053749;28;20215;-64
2022/09/24 01:57:59;;;;;;;22.70;15.03;;;13.10;99.90;;;;;;5050778;28;20200;-64
2022/09/24 02:00:30;;;;;;;21.80;14.17;;;13.10;99.90;;;;;;5089638;28;20322;-64
2022/09/24 02:03:07;;;;;;;21.73;14.30;;;13.10;99.90;;;;;;5056430;28;20188;-64
2022/09/24 02:05:41;;;;;;;20.13;14.50;;;13.10;99.90;;;;;;5060931;28;20197;-64
2022/09/24 02:08:13;;;;;;;20.17;14.63;;;13.10;99.90;;;;;;5062241;28;20203;-64
2022/09/24 02:10:47;;;;;;;23.47;15.13;;;13.10;99.90;;;;;;5062342;28;20208;-64
2022/09/24 02:13:18;;;;;;;22.63;15.27;;;13.10;99.90;;;;;;5062414;28;20199;-64
2022/09/24 02:15:52;;;;;;;23.87;14.50;;;13.10;99.90;;;;;;5056254;28;20193;-64
2022/09/24 02:18:23;;;;;;;22.53;14.20;;;13.10;99.90;;;;;;5055086;28;20197;-64
2022/09/24 02:20:53;;;;;;;23.50;15.23;;;13.10;99.90;;;;;;5059084;28;20196;-64
2022/09/24 02:23:26;;;;;;;22.30;15.33;;;13.10;99.90;;;;;;5088532;28;20582;-64
2022/09/24 02:25:58;;;;;;;25.20;15.67;;;13.10;99.90;;;;;;5058599;28;20203;-64
2022/09/24 02:28:27;;;;;;;24.73;15.63;;;13.10;99.90;;;;;;5047013;28;20203;-64
2022/09/24 02:31:02;;;;;;;25.40;15.60;;;13.10;99.90;;;;;;5054635;28;20212;-64
2022/09/24 02:36:24;;;;;;;24.87;16.10;;;13.10;99.90;;;;;;5060193;28;20692;-64
2022/09/24 02:38:53;;;;;;;27.77;17.43;;;13.10;99.90;;;;;;5058304;28;20203;-64
2022/09/24 02:41:23;;;;;;;26.50;17.13;;;13.10;99.90;;;;;;5056065;28;20199;-65
2022/09/24 02:43:52;;;;;;;27.63;17.07;;;13.10;99.90;;;;;;5054975;28;20201;-64
2022/09/24 02:46:21;;;;;;;23.67;16.63;;;13.10;99.90;;;;;;5060812;28;20535;-64
2022/09/24 02:48:50;;;;;;;27.07;16.37;;;13.10;99.90;;;;;;5058227;28;20207;-64
2022/09/24 02:51:19;;;;;;;28.13;17.43;;;13.10;99.90;;;;;;5061802;28;20239;-64
2022/09/24 02:53:47;;;;;;;27.00;17.47;;;13.00;99.90;;;;;;5062333;28;20290;-65
2022/09/24 02:56:16;;;;;;;24.93;16.70;;;13.00;99.90;;;;;;5059755;28;20192;-64
2022/09/24 02:58:44;;;;;;;24.67;16.20;;;13.10;99.90;;;;;;5056165;28;20231;-64
2022/09/24 03:01:13;;;;;;;27.83;16.17;;;13.10;99.90;;;;;;5056211;28;20204;-64
2022/09/24 03:03:43;;;;;;;27.43;16.50;;;13.10;99.90;;;;;;5065155;28;20206;-64
2022/09/24 03:06:12;;;;;;;25.13;16.40;;;13.10;99.90;;;;;;5062327;28;20203;-64
2022/09/24 03:08:42;;;;;;;22.10;15.03;;;13.10;99.90;;;;;;5059312;28;20191;-64
2022/09/24 03:11:11;;;;;;;22.57;15.70;;;13.00;99.90;;;;;;5059443;28;20682;-64
2022/09/24 03:13:45;;;;;;;23.87;14.97;;;13.10;99.90;;;;;;5062522;28;20270;-64
2022/09/24 03:16:14;;;;;;;22.33;14.57;;;13.00;99.90;;;;;;5064075;28;20203;-64
2022/09/24 03:18:46;;;;;;;21.93;15.37;;;13.10;99.90;;;;;;5064981;28;20204;-64
2022/09/24 03:21:16;;;;;;;25.83;16.30;;;13.00;99.90;;;;;;5064185;28;20224;-64
2022/09/24 03:23:46;;;;;;;27.13;16.10;;;13.10;99.90;;;;;;5059622;28;20219;-64
2022/09/24 03:26:16;;;;;;;23.87;15.90;;;13.10;99.90;;;;;;5062950;28;20190;-64
2022/09/24 03:28:45;;;;;;;24.27;15.73;;;13.10;99.90;;;;;;5063118;28;20197;-64
2022/09/24 03:31:12;;;;;;;25.53;15.93;;;13.10;99.90;;;;;;5066131;28;20888;-64
2022/09/24 03:33:42;;;;;;;29.93;16.23;;;13.10;99.90;;;;;;5058493;28;20196;-64
2022/09/24 03:36:15;;;;;;;23.07;14.60;;;13.10;99.90;;;;;;5069379;28;20731;-64
2022/09/24 03:38:45;;;;;;;23.07;15.93;;;13.00;99.90;;;;;;5066082;28;20197;-64
2022/09/24 03:41:14;;;;;;;26.47;15.63;;;13.10;99.90;;;;;;5064733;28;20924;-64
2022/09/24 03:43:42;;;;;;;24.57;15.77;;;13.00;99.90;;;;;;5067996;28;20661;-64
2022/09/24 03:46:12;;;;;;;23.73;14.90;;;13.00;99.90;;;;;;5063124;28;20200;-64
2022/09/24 03:48:41;;;;;;;22.63;15.27;;;13.00;99.90;;;;;;5056590;28;20208;-64
2022/09/24 03:51:12;;;;;;;27.60;15.67;;;13.00;99.90;;;;;;5063553;28;20732;-64
2022/09/24 03:53:41;;;;;;;23.43;15.33;;;13.00;99.90;;;;;;5058195;28;20216;-64
2022/09/24 03:56:12;;;;;;;26.77;15.43;;;13.10;99.90;;;;;;5064958;28;20191;-64
2022/09/24 03:58:46;;;;;;;27.23;16.50;;;13.00;99.90;;;;;;5056192;28;20231;-64
2022/09/24 04:01:20;;;;;;;28.97;16.93;;;13.00;99.90;;;;;;5055935;28;20234;-64
2022/09/24 04:03:50;;;;;;;27.07;15.73;;;13.00;99.90;;;;;;5059713;28;20955;-64
2022/09/24 04:06:20;;;;;;;26.23;16.30;;;13.00;99.90;;;;;;5063550;28;20188;-64
2022/09/24 04:08:56;;;;;;;27.63;16.63;;;13.00;99.90;;;;;;5057131;28;20278;-64
2022/09/24 04:11:25;;;;;;;27.67;17.80;;;13.00;99.90;;;;;;5066811;28;20207;-64
2022/09/24 04:13:53;;;;;;;28.80;17.87;;;13.00;99.90;;;;;;5055326;28;20204;-64
2022/09/24 04:16:22;;;;;;;28.53;18.43;;;13.00;99.90;;;;;;5062126;28;20196;-64
2022/09/24 04:18:54;;;;;;;31.03;17.77;;;13.00;99.90;;;;;;5059846;28;20269;-64
2022/09/24 04:21:24;;;;;;;29.40;18.10;;;13.00;99.90;;;;;;5063223;28;20187;-64
2022/09/24 04:23:52;;;;;;;28.77;17.47;;;13.00;99.90;;;;;;5063357;28;20202;-64
2022/09/24 04:26:21;;;;;;;30.73;19.93;;;13.00;99.90;;;;;;5064416;28;20196;-64
2022/09/24 04:28:49;;;;;;;30.67;18.57;;;13.00;99.90;;;;;;5057656;28;20196;-64
2022/09/24 04:31:18;;;;;;;30.70;19.47;;;13.00;99.90;;;;;;5061191;28;20678;-64
2022/09/24 04:33:47;;;;;;;33.20;19.60;;;13.00;99.90;;;;;;5060739;28;20940;-64
2022/09/24 04:36:15;;;;;;;35.20;20.27;;;13.00;99.90;;;;;;5063319;28;20196;-64
2022/09/24 04:38:47;;;;;;;37.67;21.00;;;13.00;99.90;;;;;;5096359;28;20235;-64
2022/09/24 04:41:16;;;;;;;34.63;20.83;;;13.00;99.90;;;;;;5068422;28;20602;-64
2022/09/24 04:43:45;;;;;;;35.27;21.33;;;13.00;99.90;;;;;;5054159;28;20195;-64
2022/09/24 04:46:14;;;;;;;34.40;20.50;;;13.00;99.90;;;;;;5063466;28;20718;-64
2022/09/24 04:48:42;;;;;;;38.70;21.00;;;13.00;99.90;;;;;;5056875;28;20201;-64
2022/09/24 04:51:10;;;;;;;33.90;20.33;;;13.00;99.90;;;;;;5070932;28;20304;-64
2022/09/24 04:53:39;;;;;;;35.37;21.03;;;13.00;99.90;;;;;;5063947;28;20911;-64
2022/09/24 04:56:10;;;;;;;35.67;21.63;;;13.00;99.90;;;;;;5070122;28;20282;-64
2022/09/24 04:58:39;;;;;;;37.07;21.80;;;13.00;99.90;;;;;;5055998;28;20710;-64
2022/09/24 05:01:08;;;;;;;40.87;21.90;;;12.90;99.90;;;;;;5061792;28;20188;-65
2022/09/24 05:03:36;;;;;;;40.20;22.20;;;13.00;99.90;;;;;;5064003;28;20717;-64
2022/09/24 05:06:05;;;;;;;39.17;22.40;;;13.00;99.90;;;;;;5053165;28;20235;-64
2022/09/24 05:08:33;;;;;;;42.50;23.20;;;12.90;99.90;;;;;;5060549;28;20184;-64
2022/09/24 05:11:02;;;;;;;39.63;21.90;;;13.00;99.90;;;;;;5056913;28;20201;-64
2022/09/24 05:13:32;;;;;;;39.73;22.73;;;13.00;99.90;;;;;;5055448;28;20220;-64
2022/09/24 05:16:00;;;;;;;36.07;22.10;;;13.00;99.90;;;;;;5060028;28;20200;-64
2022/09/24 05:18:29;;;;;;;35.17;22.13;;;13.00;99.90;;;;;;5061628;28;20208;-64
2022/09/24 05:20:57;;;;;;;38.47;22.33;;;13.00;99.90;;;;;;5060293;28;20192;-65
2022/09/24 05:23:26;;;;;;;40.07;23.00;;;13.00;99.90;;;;;;5059101;28;20218;-64
2022/09/24 05:28:42;;;;;;;41.90;23.00;;;13.00;99.90;;;;;;5055813;28;20196;-65
2022/09/24 05:31:11;;;;;;;33.77;20.73;;;13.00;99.90;;;;;;5060157;28;20203;-65
2022/09/24 05:33:39;;;;;;;36.23;22.43;;;13.00;99.90;;;;;;5057876;28;20232;-64
2022/09/24 05:36:07;;;;;;;40.50;22.73;;;13.00;99.90;;;;;;5047189;28;20544;-64
2022/09/24 05:38:37;;;;;;;37.10;22.03;;;13.00;99.90;;;;;;5056936;28;20180;-65
2022/09/24 05:41:09;;;;;;;40.30;22.83;;;13.00;99.90;;;;;;5077786;28;20665;-64
2022/09/24 05:43:38;;;;;;;36.73;21.93;;;13.00;99.90;;;;;;5054501;28;20219;-64
2022/09/24 05:46:07;;;;;;;35.97;21.40;;;13.00;99.90;;;;;;5057055;28;20203;-64
2022/09/24 05:48:36;;;;;;;43.73;23.83;;;13.00;99.90;;;;;;5054891;28;20204;-64
2022/09/24 05:51:07;;;;;;;37.03;23.37;;;13.00;99.90;;;;;;5052213;28;20267;-64
2022/09/24 05:53:35;;;;;;;42.30;24.60;;;13.00;99.90;;;;;;5058788;28;20220;-64
2022/09/24 05:56:03;;;;;;;41.37;24.57;;;13.00;99.90;;;;;;5052037;28;20193;-64
2022/09/24 05:58:32;;;;;;;41.57;23.73;;;13.00;99.90;;;;;;5051418;28;20240;-64
2022/09/24 06:01:00;;;;;;;37.53;22.87;;;13.00;99.90;;;;;;5054507;28;20196;-64
2022/09/24 06:03:30;;;;;;;40.97;23.47;;;13.00;99.90;;;;;;5058639;28;20200;-64
2022/09/24 06:06:00;;;;;;;39.50;23.90;;;13.00;99.90;;;;;;5038498;28;20201;-64
2022/09/24 06:08:31;;;;;;;42.93;23.80;;;13.10;99.90;;;;;;5058635;28;20273;-64
2022/09/24 06:11:01;;;;;;;41.73;23.00;;;13.00;99.90;;;;;;5058742;28;20196;-64
2022/09/24 06:13:30;;;;;;;36.77;23.50;;;13.10;99.90;;;;;;5053852;28;20228;-64
2022/09/24 06:16:01;;;;;;;40.70;24.33;;;13.00;99.90;;;;;;5058137;28;20279;-64
2022/09/24 06:18:33;;;;;;;38.37;23.80;;;13.10;99.90;;;;;;5059444;28;20200;-64
2022/09/24 06:21:03;;;;;;;42.70;24.13;;;13.00;99.90;;;;;;5058735;28;20196;-64
2022/09/24 06:23:31;;;;;;;40.03;24.27;;;13.00;99.90;;;;;;5048490;28;20189;-64
2022/09/24 06:26:00;;;;;;;39.07;23.77;;;13.00;99.90;;;;;;5055131;28;20197;-64
2022/09/24 06:28:28;;;;;;;46.13;25.20;;;13.10;99.90;;;;;;5051072;28;20215;-64
2022/09/24 06:31:00;;;;;;;40.93;24.10;;;13.00;99.90;;;;;;5053604;28;20290;-64
2022/09/24 06:33:29;;;;;;;41.47;24.80;;;13.10;99.90;;;;;;5058692;28;20214;-64
2022/09/24 06:36:02;;;;;;;43.37;24.30;;;13.10;99.90;;;;;;5066094;28;20192;-64
2022/09/24 06:38:35;;;;;;;43.77;25.57;;;13.10;99.90;;;;;;5062020;28;20198;-64
2022/09/24 06:41:05;;;;;;;43.33;24.37;;;13.10;99.90;;;;;;5061118;28;20973;-64
2022/09/24 06:43:34;;;;;;;47.70;26.10;;;13.10;99.90;;;;;;5063373;28;20583;-64
2022/09/24 06:46:03;;;;;;;54.47;25.57;;;13.10;99.90;;;;;;5060647;28;20215;-64
2022/09/24 06:48:32;;;;;;;41.33;22.47;;;13.20;99.90;;;;;;5058310;28;20322;-64
2022/09/24 06:51:04;;;;;;;37.53;22.73;;;13.20;99.90;;;;;;5052843;28;20306;-64
2022/09/24 06:53:33;;;;;;;40.40;23.97;;;13.20;99.90;;;;;;5061049;28;20241;-64
2022/09/24 06:56:02;;;;;;;41.20;23.67;;;13.20;99.90;;;;;;5053019;28;20208;-64
2022/09/24 06:58:30;;;;;;;39.80;22.67;;;13.20;99.90;;;;;;5066556;28;20192;-64
2022/09/24 07:01:01;;;;;;;38.37;22.37;;;13.30;99.90;;;;;;5063452;28;20209;-64
2022/09/24 07:03:32;;;;;;;36.37;21.53;;;13.30;99.90;;;;;;5065473;28;20192;-64
2022/09/24 07:06:04;;;;;;;35.90;21.27;;;13.30;99.90;;;;;;5064083;28;20188;-64
2022/09/24 07:08:33;;;;;;;32.60;20.73;;;13.40;99.90;;;;;;5099579;28;20776;-64
2022/09/24 07:11:02;;;;;;;32.93;20.47;;;13.30;99.90;;;;;;5065795;28;20727;-64
2022/09/24 07:13:30;;;;;;;30.13;19.27;;;13.30;99.90;;;;;;5060911;28;20238;-64
2022/09/24 07:16:00;;;;;;;31.23;19.53;;;13.30;99.90;;;;;;5060899;28;20189;-64
2022/09/24 07:18:28;;;;;;;33.73;20.13;;;13.30;99.90;;;;;;5051881;28;20196;-64
2022/09/24 07:20:57;;;;;;;34.10;19.23;;;13.30;99.90;;;;;;5065227;28;20967;-64
2022/09/24 07:23:29;;;;;;;30.47;19.73;;;13.30;99.90;;;;;;5067451;28;20215;-65
2022/09/24 07:25:57;;;;;;;31.40;19.70;;;13.30;99.90;;;;;;5061820;28;20715;-64
2022/09/24 07:28:26;;;;;;;33.30;19.97;;;13.30;99.90;;;;;;5066678;28;20207;-64
2022/09/24 07:30:59;;;;;;;35.53;20.03;;;13.30;99.90;;;;;;5064222;28;20227;-65
2022/09/24 07:33:27;;;;;;;32.07;20.97;;;13.30;99.90;;;;;;5053445;28;20346;-64
2022/09/24 07:35:56;;;;;;;34.53;20.70;;;13.40;99.90;;;;;;5063477;28;20208;-65
2022/09/24 07:38:24;;;;;;;34.70;21.27;;;13.30;99.90;;;;;;5063707;28;20215;-64
2022/09/24 07:40:57;;;;;;;30.17;19.77;;;13.40;99.90;;;;;;5061146;28;20195;-64
2022/09/24 07:43:26;;;;;;;34.33;19.97;;;13.50;99.90;;;;;;5066847;28;20192;-64
2022/09/24 07:45:56;;;;;;;30.57;20.20;;;13.40;99.90;;;;;;5065413;28;20196;-64
2022/09/24 07:48:28;;;;;;;29.00;19.23;;;13.40;99.90;;;;;;5056852;28;20196;-64
2022/09/24 07:50:59;;;;;;;31.47;20.53;;;13.40;99.90;;;;;;5072676;28;20223;-64
2022/09/24 07:53:27;;;;;;;32.67;20.63;;;13.50;99.90;;;;;;5064014;28;21328;-64
2022/09/24 07:56:00;;;;;;;33.37;20.00;;;13.50;99.90;;;;;;5071096;28;20196;-64
2022/09/24 07:58:28;;;;;;;31.63;20.43;;;13.60;99.90;;;;;;5061020;28;20196;-64
2022/09/24 08:00:58;;;;;;;33.80;20.33;;;13.60;99.90;;;;;;5055824;28;20207;-64
2022/09/24 08:03:27;;;;;;;35.33;19.93;;;13.70;99.90;;;;;;5060435;28;20196;-64
2022/09/24 08:05:57;;;;;;;29.67;19.83;;;13.70;99.90;;;;;;5054587;28;20799;-64
2022/09/24 08:08:25;;;;;;;35.13;20.03;;;13.70;99.90;;;;;;5060703;28;20196;-64
2022/09/24 08:10:54;;;;;;;29.10;19.23;;;13.80;99.90;;;;;;5067902;28;20279;-64
2022/09/24 08:13:25;;;;;;;33.63;20.53;;;13.80;99.90;;;;;;5060304;28;20213;-64
2022/09/24 08:15:59;;;;;;;30.50;19.53;;;13.90;99.90;;;;;;5067950;28;20211;-64
2022/09/24 08:18:30;;;;;;;28.47;19.67;;;13.90;99.90;;;;;;5067157;28;20279;-65
2022/09/24 08:20:59;;;;;;;31.57;19.33;;;14.00;99.90;;;;;;5071562;28;20196;-64
2022/09/24 08:23:27;;;;;;;30.63;19.83;;;14.00;99.90;;;;;;5059087;28;20192;-64
2022/09/24 08:25:56;;;;;;;28.60;19.40;;;14.00;99.90;;;;;;5057707;28;20188;-64
2022/09/24 08:28:26;;;;;;;36.67;21.17;;;14.00;99.90;;;;;;5061535;28;20200;-64
2022/09/24 08:30:57;;;;;;;35.90;21.07;;;14.00;99.90;;;;;;5058222;28;20201;-64
2022/09/24 08:33:26;;;;;;;32.13;20.00;;;14.00;99.90;;;;;;5059557;28;20714;-64
2022/09/24 08:35:55;;;;;;;31.63;20.20;;;14.00;99.90;;;;;;5063239;28;20192;-64
2022/09/24 08:38:24;;;;;;;35.13;20.20;;;14.10;99.90;;;;;;5059644;28;20199;-64
2022/09/24 08:40:59;;;;;;;32.33;20.23;;;14.10;99.90;;;;;;5052601;28;20208;-64
2022/09/24 08:43:40;;;;;;;33.10;19.87;;;14.10;99.90;;;;;;5057872;28;20195;-64
2022/09/24 08:49:05;;;;;;;34.17;21.67;;;14.00;99.90;;;;;;5049445;28;20196;-64
2022/09/24 08:51:40;;;;;;;34.97;21.30;;;14.00;99.90;;;;;;5062026;28;20184;-65
2022/09/24 08:54:13;;;;;;;35.17;22.27;;;14.00;99.90;;;;;;5063398;28;20948;-64
2022/09/24 08:56:45;;;;;;;35.93;23.17;;;14.00;99.90;;;;;;5066869;28;20736;-64
2022/09/24 08:59:26;;;;;;;36.87;23.10;;;14.10;99.90;;;;;;5057217;28;20250;-65
2022/09/24 09:02:05;;;;;;;40.37;24.60;;;14.00;99.90;;;;;;5068618;28;20208;-65
2022/09/24 09:04:42;;;;;;;37.17;23.83;;;14.00;99.90;;;;;;5051670;28;20536;-65
2022/09/24 09:07:18;;;;;;;36.27;23.97;;;14.10;99.90;;;;;;5065292;28;20662;-65
2022/09/24 09:09:54;;;;;;;39.03;24.10;;;14.10;99.90;;;;;;5064421;28;20200;-64
2022/09/24 09:12:27;;;;;;;37.80;25.13;;;14.10;99.90;;;;;;5069251;28;20189;-65
2022/09/24 09:15:02;;;;;;;36.07;24.13;;;14.10;99.90;;;;;;5064618;28;20208;-65
2022/09/24 09:17:36;;;;;;;43.00;25.83;;;14.10;99.90;;;;;;5064369;28;20203;-66
2022/09/24 09:20:10;;;;;;;39.87;25.33;;;14.10;99.90;;;;;;5065758;28;20897;-65
2022/09/24 09:22:44;;;;;;;42.03;24.60;;;14.10;99.90;;;;;;5059936;28;20921;-65
2022/09/24 09:25:19;;;;;;;37.30;23.77;;;14.10;99.90;;;;;;5064358;28;20191;-65
2022/09/24 09:27:51;;;;;;;39.33;26.13;;;14.10;99.90;;;;;;5060953;28;20200;-65
2022/09/24 09:30:23;;;;;;;44.50;26.63;;;14.10;99.90;;;;;;5067413;28;20199;-65
2022/09/24 09:33:21;;;;;;;40.33;25.37;;;14.10;99.90;;;;;;5059689;28;20657;-65
2022/09/24 09:35:55;;;;;;;44.40;26.50;;;14.10;99.90;;;;;;5065490;28;20586;-64
2022/09/24 09:38:30;;;;;;;40.17;25.77;;;14.10;99.90;;;;;;5059282;28;20194;-65
2022/09/24 09:41:03;;;;;;;45.33;25.57;;;14.10;99.90;;;;;;5067826;28;20188;-65
2022/09/24 09:43:34;;;;;;;44.00;27.43;;;14.10;99.90;;;;;;5057131;28;20689;-65
2022/09/24 09:46:14;;;;;;;49.97;30.87;;;14.10;99.90;;;;;;5064421;28;20196;-65
2022/09/24 09:48:46;;;;;;;40.43;26.87;;;14.10;99.90;;;;;;5053951;28;20200;-65
2022/09/24 09:51:19;;;;;;;53.33;33.20;;;14.10;99.90;;;;;;5054304;28;20307;-65
2022/09/24 09:53:58;;;;;;;49.70;32.47;;;14.10;99.90;;;;;;5058298;28;20318;-65
2022/09/24 09:56:31;;;;;;;58.57;43.10;;;14.20;99.90;;;;;;5057232;28;20904;-65
2022/09/24 09:59:07;;;;;;;121.17;93.83;;;14.20;99.90;;;;;;5058425;28;20328;-65
2022/09/24 10:01:40;;;;;;;88.63;63.67;;;14.20;99.90;;;;;;5053724;28;20188;-65
2022/09/24 10:04:36;;;;;;;36.60;23.40;;;14.20;99.90;;;;;;5060747;28;20196;-65
2022/09/24 10:07:06;;;;;;;39.23;24.83;;;14.30;99.90;;;;;;5052792;28;20682;-65
2022/09/24 10:09:36;;;;;;;35.33;23.03;;;14.30;99.90;;;;;;5064422;28;20199;-65
2022/09/24 10:12:09;;;;;;;55.33;34.00;;;14.30;99.90;;;;;;5068935;28;20199;-65
2022/09/24 10:14:37;;;;;;;39.60;25.83;;;14.30;99.90;;;;;;5061231;28;20228;-64
2022/09/24 10:17:11;;;;;;;34.23;22.20;;;14.30;99.90;;;;;;5068289;28;20195;-65
2022/09/24 10:19:44;;;;;;;35.80;22.53;;;14.40;99.90;;;;;;5063992;28;20661;-65
2022/09/24 10:22:22;;;;;;;57.10;38.37;;;14.40;99.90;;;;;;5068661;28;20196;-64
2022/09/24 10:24:51;;;;;;;50.33;30.53;;;14.40;99.90;;;;;;5069131;28;20187;-65
2022/09/24 10:27:26;;;;;;;39.07;25.90;;;14.40;99.90;;;;;;5069623;28;20199;-65
2022/09/24 10:32:44;;;;;;;32.27;21.57;;;14.50;99.90;;;;;;5069804;28;20208;-65
2022/09/24 10:35:27;;;;;;;35.00;21.67;;;14.50;99.90;;;;;;5069259;28;20216;-65
2022/09/24 10:37:57;;;;;;;26.60;18.73;;;14.50;99.90;;;;;;5067580;28;20205;-65
2022/09/24 10:40:29;;;;;;;60.63;40.93;;;14.40;99.90;;;;;;5071444;28;20202;-65
2022/09/24 10:43:00;;;;;;;33.63;22.47;;;14.40;99.90;;;;;;5051728;28;21076;-65
2022/09/24 10:45:49;;;;;;;65.27;42.60;;;14.30;99.90;;;;;;5056503;28;20196;-65
2022/09/24 10:48:25;;;;;;;54.60;35.37;;;14.40;99.90;;;;;;5053535;28;22309;-65
2022/09/24 10:51:02;;;;;;;40.03;25.90;;;14.40;99.90;;;;;;5056806;28;20953;-64
2022/09/24 10:53:42;;;;;;;34.27;22.50;;;14.50;99.90;;;;;;5065154;28;20227;-64
2022/09/24 10:56:20;;;;;;;36.33;21.53;;;14.60;99.90;;;;;;5067178;28;20880;-64
2022/09/24 10:59:28;;;;;;;30.60;21.40;;;14.60;99.90;;;;;;5056074;28;20239;-64
2022/09/24 11:02:16;;;;;;;33.23;20.80;;;14.60;99.90;;;;;;5021898;28;20214;-64
2022/09/24 11:04:51;;;;;;;34.20;21.90;;;14.70;99.90;;;;;;5053765;28;20184;-64
2022/09/24 11:07:32;;;;;;;29.37;21.13;;;14.70;99.90;;;;;;5055248;28;20199;-65
2022/09/24 11:10:10;;;;;;;28.33;19.83;;;14.80;99.90;;;;;;5055472;28;20196;-64
2022/09/24 11:12:51;;;;;;;35.43;22.33;;;14.80;99.90;;;;;;5058059;28;20200;-64
2022/09/24 11:15:34;;;;;;;34.33;22.63;;;14.80;99.90;;;;;;5057288;28;20291;-64
2022/09/24 11:18:11;;;;;;;30.80;21.37;;;14.90;99.90;;;;;;5051327;28;20202;-64
2022/09/24 11:20:50;;;;;;;31.47;21.53;;;14.90;99.90;;;;;;5058824;28;20201;-64
2022/09/24 11:23:42;;;;;;;31.90;21.13;;;15.00;99.90;;;;;;5057698;28;20192;-64
2022/09/24 11:26:24;;;;;;;32.57;21.57;;;15.00;99.90;;;;;;5060958;28;20180;-64
2022/09/24 11:29:12;;;;;;;33.93;21.90;;;15.00;99.90;;;;;;5055961;28;20197;-64
2022/09/24 11:31:46;;;;;;;35.07;22.47;;;15.00;99.90;;;;;;5057486;28;20188;-64
2022/09/24 11:34:36;;;;;;;31.30;21.70;;;15.00;99.90;;;;;;5041676;28;20185;-64
2022/09/24 11:37:19;;;;;;;33.80;22.97;;;15.00;99.90;;;;;;5050563;28;20224;-64
2022/09/24 11:40:03;;;;;;;38.03;23.97;;;15.10;99.90;;;;;;5050997;28;20202;-64
2022/09/24 11:42:37;;;;;;;37.90;22.90;;;15.10;99.90;;;;;;5058356;28;20215;-64
2022/09/24 11:45:26;;;;;;;30.77;21.67;;;15.10;99.90;;;;;;5054525;28;20192;-64
2022/09/24 11:48:17;;;;;;;27.50;18.40;;;15.00;99.90;;;;;;5062698;28;20204;-65
2022/09/24 11:50:57;;;;;;;25.90;18.20;;;15.10;99.90;;;;;;5055910;28;20200;-64
2022/09/24 11:53:36;;;;;;;14.97;9.70;;;15.10;99.90;;;;;;5051745;28;20275;-64
2022/09/24 11:56:10;;;;;;;9.67;7.50;;;15.00;99.90;;;;;;5049632;28;20243;-64
2022/09/24 11:58:43;;;;;;;5.93;4.77;;;14.90;99.90;;;;;;5052074;28;20216;-64
2022/09/24 12:01:16;;;;;;;4.77;3.90;;;15.00;99.90;;;;;;5058197;28;20204;-65
2022/09/24 12:03:52;;;;;;;3.87;3.57;;;15.00;99.90;;;;;;5057497;28;20643;-64
2022/09/24 12:06:29;;;;;;;6.17;3.57;;;15.10;99.90;;;;;;5054183;28;20188;-65
2022/09/24 12:09:07;;;;;;;4.73;2.80;;;15.10;99.90;;;;;;5055635;28;20220;-64
2022/09/24 12:11:41;;;;;;;5.30;2.97;;;15.10;99.90;;;;;;5056592;28;20207;-64
2022/09/24 12:14:17;;;;;;;3.30;3.00;;;15.20;99.90;;;;;;5058124;28;20199;-64
2022/09/24 12:16:49;;;;;;;3.23;2.93;;;15.30;99.90;;;;;;5061234;28;20220;-64
2022/09/24 12:19:22;;;;;;;4.40;3.33;;;15.30;99.90;;;;;;5056484;28;20299;-64
2022/09/24 12:21:52;;;;;;;3.10;2.90;;;15.40;99.90;;;;;;5057392;28;21133;-64
2022/09/24 12:24:28;;;;;;;3.60;3.30;;;15.50;99.90;;;;;;5060964;28;20208;-64
2022/09/24 12:27:00;;;;;;;3.80;3.40;;;15.50;99.90;;;;;;5062225;28;20201;-64
2022/09/24 12:32:58;;;;;;;4.80;3.43;;;15.60;99.90;;;;;;5052468;28;20206;-64
2022/09/24 12:35:52;;;;;;;4.87;3.40;;;15.60;99.90;;;;;;5056109;28;20922;-64
2022/09/24 12:38:26;;;;;;;7.20;3.80;;;15.50;99.90;;;;;;5041049;28;20194;-64
2022/09/24 12:41:23;;;;;;;7.30;3.20;;;15.40;99.90;;;;;;5056627;28;20825;-64
2022/09/24 12:43:57;;;;;;;5.63;3.33;;;15.30;99.90;;;;;;5051656;28;20204;-64
2022/09/24 12:46:31;;;;;;;13.07;3.90;;;15.30;99.90;;;;;;5062834;28;20190;-64
2022/09/24 12:49:01;;;;;;;5.63;3.17;;;15.30;99.90;;;;;;5050411;28;20270;-64
2022/09/24 12:51:38;;;;;;;11.77;3.73;;;15.40;99.90;;;;;;5060188;28;20212;-64
2022/09/24 12:54:19;;;;;;;7.80;3.40;;;15.50;99.90;;;;;;5052124;28;20298;-64
2022/09/24 12:56:49;;;;;;;6.50;3.50;;;15.50;99.90;;;;;;5057178;28;20221;-64
2022/09/24 12:59:28;;;;;;;9.83;3.73;;;15.50;99.90;;;;;;5055283;28;20235;-64
2022/09/24 13:02:13;;;;;;;4.83;2.83;;;15.50;99.90;;;;;;5052759;28;20207;-64
2022/09/24 13:04:45;;;;;;;7.27;3.30;;;15.50;99.90;;;;;;5067667;28;20205;-64
2022/09/24 13:07:31;;;;;;;10.83;3.00;;;15.40;99.90;;;;;;5061233;28;20200;-64
2022/09/24 13:10:21;;;;;;;7.93;3.07;;;15.40;99.90;;;;;;5061361;28;20193;-64
2022/09/24 13:12:51;;;;;;;6.20;2.90;;;15.50;99.90;;;;;;5055003;28;20280;-64